createdAt,value
2023-05-14T00:10:48.838Z,99369.19
2023-05-14T00:30:50.794Z,99353.50
2023-05-14T00:50:52.449Z,99345.28
2023-05-14T01:10:54.367Z,99319.88
2023-05-14T01:30:56.446Z,99293.69
2023-05-14T01:50:58.147Z,99281.81
2023-05-14T02:10:59.905Z,99268.84
2023-05-14T02:31:01.853Z,99253.41
2023-05-14T02:51:03.468Z,99257.25
2023-05-14T03:11:05.105Z,99266.09
2023-05-14T03:31:07.582Z,99252.38
2023-05-14T03:51:09.270Z,99244.63
2023-05-14T04:11:11.103Z,99227.97
2023-05-14T04:31:12.726Z,99215.38
2023-05-14T04:51:14.440Z,99218.09
2023-05-14T05:11:16.010Z,99232.97
2023-05-14T05:31:19.704Z,99228.59
2023-05-14T05:51:23.337Z,99233.97
2023-05-14T06:11:24.987Z,99226.72
2023-05-14T06:31:26.583Z,99220.09
2023-05-14T06:51:28.207Z,99218.63
2023-05-14T07:11:29.951Z,99186.81
2023-05-14T07:31:31.702Z,99181.47
2023-05-14T07:51:33.480Z,99171.50
2023-05-14T08:11:35.306Z,99121.59
2023-05-14T08:31:37.242Z,99111.22
2023-05-14T08:51:39.261Z,99090.97
2023-05-14T09:11:40.726Z,99091.81
2023-05-14T09:31:42.894Z,99101.09
2023-05-14T09:51:44.698Z,99077.47
2023-05-14T10:11:46.884Z,99059.19
2023-05-14T10:31:51.703Z,99035.97
2023-05-14T10:51:53.429Z,99016.69
2023-05-14T11:11:55.337Z,99013.50
2023-05-14T11:31:57.211Z,98996.16
2023-05-14T11:51:58.813Z,98971.16
2023-05-14T12:12:00.380Z,98948.16
2023-05-14T12:32:02.375Z,98901.28
2023-05-14T12:52:19.863Z,98861.50
2023-05-14T13:12:25.796Z,98874.38
2023-05-14T13:32:27.460Z,98853.97
2023-05-14T13:52:32.290Z,98844.72
2023-05-14T14:12:35.243Z,98833.81
2023-05-14T14:32:36.903Z,98810.81
2023-05-14T14:52:38.874Z,98809.34
2023-05-14T15:12:40.847Z,98777.50
2023-05-14T15:32:44.938Z,98756.72
2023-05-14T15:52:46.669Z,98717.06
2023-05-14T16:12:48.353Z,98697.53
2023-05-14T16:32:52.118Z,98656.47
2023-05-14T16:52:53.754Z,98634.47
2023-05-14T17:12:55.749Z,98624.59
2023-05-14T17:33:00.112Z,98612.28
2023-05-14T17:53:01.745Z,98601.78
2023-05-14T18:13:03.442Z,98587.19
2023-05-14T18:33:04.955Z,98575.88
2023-05-14T18:53:06.590Z,98574.00
2023-05-14T19:13:08.132Z,98549.97
2023-05-14T19:33:09.784Z,98539.03
2023-05-14T19:53:11.607Z,98519.94
2023-05-14T20:13:13.259Z,98525.50
2023-05-14T20:33:15.143Z,98470.41
2023-05-14T20:53:16.809Z,98456.00
2023-05-14T21:13:18.415Z,98443.72
2023-05-14T21:33:20.073Z,98430.13
2023-05-14T21:53:22.031Z,98386.63
2023-05-14T22:13:23.687Z,98400.97
2023-05-14T22:33:25.240Z,98346.03
2023-05-14T22:53:26.910Z,98337.13
2023-05-14T23:13:28.868Z,98295.94
2023-05-14T23:33:32.900Z,98287.81
2023-05-14T23:53:34.563Z,98269.44
